createdAt,value
2022-09-22T00:03:23.291Z,102376.28
2022-09-22T00:08:27.128Z,102365.53
2022-09-22T00:13:33.699Z,102362.72
2022-09-22T00:18:37.860Z,102360.62
2022-09-22T00:23:42.886Z,102357.53
2022-09-22T00:28:48.901Z,102355.63
2022-09-22T00:33:53.791Z,102352.94
2022-09-22T00:38:58.825Z,102354.22
2022-09-22T00:44:34.152Z,102353.91
2022-09-22T00:49:46.365Z,102355.31
2022-09-22T00:54:52.487Z,102348.13
2022-09-22T00:59:57.715Z,102355.69
2022-09-22T01:05:01.515Z,102338.84
2022-09-22T01:10:06.040Z,102339.53
2022-09-22T01:15:22.563Z,102333.91
2022-09-22T01:20:46.436Z,102338.00
2022-09-22T01:26:07.923Z,102326.41
2022-09-22T01:31:20.548Z,102317.44
2022-09-22T01:36:27.351Z,102316.22
2022-09-22T01:41:46.644Z,102319.28
2022-09-22T01:46:55.261Z,102316.38
2022-09-22T01:52:02.296Z,102310.19
2022-09-22T01:57:13.270Z,102310.78
2022-09-22T02:02:25.353Z,102306.31
2022-09-22T02:07:33.845Z,102303.06
2022-09-22T02:12:37.612Z,102303.06
2022-09-22T02:17:42.529Z,102297.94
2022-09-22T02:22:46.267Z,102286.81
2022-09-22T02:27:53.552Z,102277.97
2022-09-22T02:33:01.027Z,102275.25
2022-09-22T02:38:10.586Z,102270.69
2022-09-22T02:43:22.707Z,102269.44
2022-09-22T02:48:31.955Z,102259.03
2022-09-22T02:53:36.632Z,102258.69
2022-09-22T02:58:40.537Z,102261.16
2022-09-22T03:03:45.884Z,102252.19
2022-09-22T03:08:49.541Z,102252.53
2022-09-22T03:13:53.396Z,102259.19
2022-09-22T03:18:58.433Z,102246.97
2022-09-22T03:24:02.207Z,102246.06
2022-09-22T03:29:06.212Z,102242.25
2022-09-22T03:34:11.266Z,102246.31
2022-09-22T03:39:14.911Z,102244.28
2022-09-22T03:44:18.929Z,102240.69
2022-09-22T03:49:24.845Z,102243.84
2022-09-22T03:54:28.725Z,102232.31
2022-09-22T03:59:32.756Z,102242.38
2022-09-22T04:04:37.765Z,102236.34
2022-09-22T04:09:42.019Z,102236.69
2022-09-22T04:14:45.668Z,102233.87
2022-09-22T04:19:50.668Z,102223.03
2022-09-22T04:24:54.463Z,102219.22
2022-09-22T04:29:58.111Z,102215.63
2022-09-22T04:35:03.188Z,102219.75
2022-09-22T04:40:07.895Z,102219.44
2022-09-22T04:45:12.001Z,102214.06
2022-09-22T04:50:18.591Z,102218.06
2022-09-22T04:55:23.875Z,102213.50
2022-09-22T05:00:29.743Z,102214.16
2022-09-22T05:05:34.815Z,102212.03
2022-09-22T05:10:38.495Z,102224.03
2022-09-22T05:15:42.435Z,102226.37
2022-09-22T05:20:47.580Z,102225.03
2022-09-22T05:25:51.220Z,102224.81
2022-09-22T05:30:54.895Z,102222.09
2022-09-22T05:35:59.988Z,102218.84
2022-09-22T05:41:03.979Z,102213.25
2022-09-22T05:46:07.776Z,102221.00
2022-09-22T05:51:13.363Z,102221.00
2022-09-22T05:56:17.039Z,102221.09
2022-09-22T06:01:20.927Z,102226.25
2022-09-22T06:06:26.106Z,102218.84
2022-09-22T06:11:29.792Z,102226.81
2022-09-22T06:16:33.544Z,102225.81
2022-09-22T06:21:39.055Z,102234.22
2022-09-22T06:26:43.002Z,102236.69
2022-09-22T06:31:48.945Z,102223.78
2022-09-22T06:36:56.218Z,102229.06
2022-09-22T06:42:01.214Z,102230.94
2022-09-22T06:47:06.311Z,102233.81
2022-09-22T06:52:14.024Z,102227.94
2022-09-22T06:57:18.504Z,102221.38
2022-09-22T07:02:23.140Z,102225.91
2022-09-22T07:07:32.111Z,102222.59
2022-09-22T07:12:36.042Z,102224.44
2022-09-22T07:17:39.727Z,102219.47
2022-09-22T07:22:44.783Z,102226.09
2022-09-22T07:27:48.564Z,102221.97
2022-09-22T07:32:52.303Z,102218.78
2022-09-22T07:38:03.281Z,102219.94
2022-09-22T07:43:06.920Z,102213.34
2022-09-22T07:48:43.107Z,102213.00
2022-09-22T07:53:49.413Z,102211.62
2022-09-22T07:58:54.653Z,102205.34
2022-09-22T08:03:58.400Z,102205.69
2022-09-22T08:09:06.907Z,102200.78
2022-09-22T08:14:12.837Z,102199.72
2022-09-22T08:19:16.546Z,102197.38
2022-09-22T08:24:23.361Z,102189.03
2022-09-22T08:29:27.935Z,102188.53
2022-09-22T08:34:31.588Z,102184.31
2022-09-22T08:39:36.814Z,102181.22
2022-09-22T08:44:43.358Z,102183.97
2022-09-22T08:50:09.197Z,102179.09
2022-09-22T08:55:20.867Z,102180.28
2022-09-22T09:00:26.083Z,102187.78
2022-09-22T09:05:51.522Z,102189.91
2022-09-22T09:11:00.221Z,102184.53
2022-09-22T09:16:16.803Z,102182.25
2022-09-22T09:21:22.932Z,102179.25
2022-09-22T09:26:29.797Z,102189.44
2022-09-22T09:31:40.744Z,102184.12
2022-09-22T09:36:49.124Z,102181.50
2022-09-22T09:41:55.346Z,102186.03
2022-09-22T09:47:08.298Z,102179.19
2022-09-22T09:52:14.036Z,102181.78
2022-09-22T09:57:20.436Z,102167.44
2022-09-22T10:02:28.556Z,102173.03
2022-09-22T10:07:40.525Z,102169.50
2022-09-22T10:12:45.529Z,102162.09
2022-09-22T10:17:49.396Z,102157.06
2022-09-22T10:22:54.222Z,102159.56
2022-09-22T10:28:04.463Z,102155.06
2022-09-22T10:33:15.420Z,102148.69
2022-09-22T10:38:21.573Z,102146.94
2022-09-22T10:43:40.986Z,102146.31
2022-09-22T10:48:49.762Z,102137.19
2022-09-22T10:54:18.251Z,102136.47
2022-09-22T10:59:39.666Z,102132.72
2022-09-22T11:04:54.737Z,102131.91
2022-09-22T11:10:36.430Z,102120.00
2022-09-22T11:15:59.640Z,102125.59
2022-09-22T11:21:17.200Z,102107.16
2022-09-22T11:26:30.055Z,102110.69
2022-09-22T11:31:47.215Z,102105.25
2022-09-22T11:36:57.279Z,102093.91
2022-09-22T11:42:14.922Z,102091.00
2022-09-22T11:47:48.380Z,102083.28
2022-09-22T11:53:09.452Z,102069.84
2022-09-22T11:58:18.727Z,102077.63
2022-09-22T12:03:28.193Z,102062.59
2022-09-22T12:08:38.250Z,102059.94
2022-09-22T12:13:44.474Z,102049.38
2022-09-22T12:18:55.319Z,102044.72
2022-09-22T12:24:02.728Z,102039.34
2022-09-22T12:29:19.223Z,102027.38
2022-09-22T12:34:27.297Z,102032.91
2022-09-22T12:39:33.355Z,102020.31
2022-09-22T12:44:44.209Z,102003.81
2022-09-22T12:49:54.922Z,102007.09
2022-09-22T12:55:18.018Z,102003.31
2022-09-22T13:00:32.194Z,101997.91
2022-09-22T13:05:46.825Z,101995.13
2022-09-22T13:10:57.199Z,101985.06
2022-09-22T13:16:02.405Z,101985.31
2022-09-22T13:21:25.728Z,101980.62
2022-09-22T13:26:32.424Z,101979.50
2022-09-22T13:31:41.274Z,101972.91
2022-09-22T13:36:46.830Z,101971.63
2022-09-22T13:41:54.320Z,101957.34
2022-09-22T13:47:00.743Z,101957.44
2022-09-22T13:52:08.966Z,101954.66
2022-09-22T13:57:20.978Z,101938.91
2022-09-22T14:02:30.646Z,101943.22
2022-09-22T14:07:55.188Z,101933.81
2022-09-22T14:13:02.473Z,101929.91
2022-09-22T14:18:14.381Z,101924.53
2022-09-22T14:23:27.983Z,101916.69
2022-09-22T14:28:37.121Z,101915.06
2022-09-22T14:33:44.950Z,101908.81
2022-09-22T14:39:06.395Z,101912.13
2022-09-22T14:44:27.332Z,101905.34
2022-09-22T14:49:40.770Z,101901.06
2022-09-22T14:54:45.855Z,101898.09
2022-09-22T15:00:13.488Z,101891.41
2022-09-22T15:05:29.575Z,101885.91
2022-09-22T15:10:35.308Z,101885.56
2022-09-22T15:15:46.435Z,101874.34
2022-09-22T15:20:52.370Z,101882.88
2022-09-22T15:25:57.703Z,101873.31
2022-09-22T15:31:01.445Z,101871.97
2022-09-22T15:36:12.775Z,101873.56
2022-09-22T15:41:17.770Z,101870.97
2022-09-22T15:46:33.721Z,101870.13
2022-09-22T15:51:37.891Z,101867.78
2022-09-22T15:56:43.738Z,101859.06
2022-09-22T16:01:47.559Z,101861.81
2022-09-22T16:06:55.353Z,101859.19
2022-09-22T16:12:00.451Z,101860.47
2022-09-22T16:17:04.275Z,101856.31
2022-09-22T16:22:08.086Z,101849.25
2022-09-22T16:27:13.160Z,101844.75
2022-09-22T16:32:17.217Z,101851.72
2022-09-22T16:37:21.112Z,101852.47
2022-09-22T16:42:26.178Z,101841.66
2022-09-22T16:47:29.855Z,101841.41
2022-09-22T16:52:34.176Z,101827.09
2022-09-22T16:57:39.308Z,101830.50
2022-09-22T17:02:46.044Z,101830.31
2022-09-22T17:07:50.077Z,101828.31
2022-09-22T17:12:56.403Z,101827.91
2022-09-22T17:18:00.096Z,101826.56
2022-09-22T17:23:06.759Z,101821.72
2022-09-22T17:28:11.910Z,101825.63
2022-09-22T17:33:16.939Z,101818.06
2022-09-22T17:38:20.679Z,101827.06
2022-09-22T17:43:25.744Z,101823.22
2022-09-22T17:48:47.202Z,101826.28
2022-09-22T17:54:23.264Z,101825.66
2022-09-22T17:59:29.274Z,101826.06
2022-09-22T18:04:33.203Z,101820.22
2022-09-22T18:09:38.726Z,101819.84
2022-09-22T18:14:46.001Z,101815.94
2022-09-22T18:19:49.864Z,101815.47
2022-09-22T18:24:55.719Z,101818.78
2022-09-22T18:30:00.920Z,101815.66
2022-09-22T18:35:05.771Z,101816.81
2022-09-22T18:40:12.594Z,101819.09
2022-09-22T18:45:18.081Z,101819.53
2022-09-22T18:50:21.780Z,101824.41
2022-09-22T18:55:26.002Z,101828.50
2022-09-22T19:00:31.581Z,101827.22
2022-09-22T19:05:35.283Z,101825.97
2022-09-22T19:10:39.004Z,101829.00
2022-09-22T19:15:44.135Z,101835.38
2022-09-22T19:20:47.897Z,101830.78
2022-09-22T19:25:51.929Z,101834.03
2022-09-22T19:30:57.147Z,101831.97
2022-09-22T19:36:01.080Z,101828.94
2022-09-22T19:41:04.947Z,101826.72
2022-09-22T19:46:10.300Z,101826.50
2022-09-22T19:51:14.047Z,101825.91
2022-09-22T19:56:20.622Z,101830.75
2022-09-22T20:01:34.657Z,101816.69
2022-09-22T20:06:38.404Z,101820.69
2022-09-22T20:11:44.396Z,101816.47
2022-09-22T20:16:50.274Z,101808.12
2022-09-22T20:22:17.856Z,101802.13
2022-09-22T20:27:24.093Z,101802.66
2022-09-22T20:32:31.568Z,101802.91
2022-09-22T20:37:35.313Z,101794.72
2022-09-22T20:42:39.069Z,101783.81
2022-09-22T20:47:44.404Z,101794.75
2022-09-22T20:52:48.138Z,101782.97
2022-09-22T20:57:51.832Z,101777.28
2022-09-22T21:03:00.392Z,101785.78
2022-09-22T21:08:18.144Z,101782.81
2022-09-22T21:13:21.823Z,101775.44
2022-09-22T21:18:26.800Z,101774.75
2022-09-22T21:23:31.260Z,101774.75
2022-09-22T21:28:35.097Z,101755.19
2022-09-22T21:33:40.134Z,101759.09
2022-09-22T21:38:45.044Z,101750.00
2022-09-22T21:43:50.043Z,101743.69
2022-09-22T21:48:59.262Z,101744.22
2022-09-22T21:54:04.497Z,101749.28
2022-09-22T21:59:08.429Z,101740.94
2022-09-22T22:04:15.364Z,101728.41
2022-09-22T22:09:21.139Z,101728.97
2022-09-22T22:14:27.209Z,101733.06
2022-09-22T22:19:32.252Z,101731.16
2022-09-22T22:24:40.483Z,101724.72
2022-09-22T22:29:44.173Z,101720.16
2022-09-22T22:34:49.945Z,101714.66
2022-09-22T22:39:53.637Z,101717.06
2022-09-22T22:44:57.378Z,101716.72
2022-09-22T22:50:02.405Z,101708.78
2022-09-22T22:55:06.986Z,101705.13
2022-09-22T23:00:12.183Z,101694.69
2022-09-22T23:05:17.579Z,101689.28
2022-09-22T23:10:21.356Z,101688.31
2022-09-22T23:15:26.331Z,101680.22
2022-09-22T23:20:31.319Z,101682.44
2022-09-22T23:25:37.454Z,101689.00
2022-09-22T23:30:41.461Z,101687.16
2022-09-22T23:35:54.475Z,101672.09
2022-09-22T23:40:59.625Z,101681.63
2022-09-22T23:46:04.623Z,101673.22
2022-09-22T23:51:10.298Z,101673.00
2022-09-22T23:56:14.881Z,101658.44
